sensor_id;sensor_type;location;lat;lon;timestamp;P1;durP1;ratioP1;P2;durP2;ratioP2
73682;SDS011;72538;48.146;11.740;2023-12-28T00:00:34;3.10;;;2.60;;
73682;SDS011;72538;48.146;11.740;2023-12-28T00:03:00;3.17;;;2.60;;
73682;SDS011;72538;48.146;11.740;2023-12-28T00:05:25;3.30;;;2.43;;
73682;SDS011;72538;48.146;11.740;2023-12-28T00:07:52;4.07;;;2.90;;
73682;SDS011;72538;48.146;11.740;2023-12-28T00:10:19;2.63;;;1.90;;
73682;SDS011;72538;48.146;11.740;2023-12-28T00:12:45;2.60;;;2.40;;
73682;SDS011;72538;48.146;11.740;2023-12-28T00:15:11;1.83;;;1.70;;
73682;SDS011;72538;48.146;11.740;2023-12-28T00:17:36;2.23;;;2.03;;
73682;SDS011;72538;48.146;11.740;2023-12-28T00:20:02;2.60;;;1.87;;
73682;SDS011;72538;48.146;11.740;2023-12-28T00:22:28;2.20;;;2.00;;
73682;SDS011;72538;48.146;11.740;2023-12-28T00:24:54;2.13;;;1.83;;
73682;SDS011;72538;48.146;11.740;2023-12-28T00:27:20;2.17;;;1.90;;
73682;SDS011;72538;48.146;11.740;2023-12-28T00:29:46;2.30;;;2.00;;
73682;SDS011;72538;48.146;11.740;2023-12-28T00:32:12;2.17;;;1.97;;
73682;SDS011;72538;48.146;11.740;2023-12-28T00:34:37;2.63;;;2.10;;
73682;SDS011;72538;48.146;11.740;2023-12-28T00:37:05;2.13;;;1.93;;
73682;SDS011;72538;48.146;11.740;2023-12-28T00:39:30;4.03;;;2.10;;
73682;SDS011;72538;48.146;11.740;2023-12-28T00:41:56;1.97;;;1.80;;
73682;SDS011;72538;48.146;11.740;2023-12-28T00:44:22;2.40;;;2.20;;
73682;SDS011;72538;48.146;11.740;2023-12-28T00:46:48;2.40;;;2.20;;
73682;SDS011;72538;48.146;11.740;2023-12-28T00:49:14;2.77;;;2.00;;
73682;SDS011;72538;48.146;11.740;2023-12-28T00:51:39;2.57;;;2.00;;
73682;SDS011;72538;48.146;11.740;2023-12-28T00:54:05;2.47;;;1.60;;
73682;SDS011;72538;48.146;11.740;2023-12-28T00:56:31;2.03;;;1.60;;
73682;SDS011;72538;48.146;11.740;2023-12-28T00:58:56;1.80;;;1.50;;
73682;SDS011;72538;48.146;11.740;2023-12-28T01:01:22;2.53;;;1.67;;
73682;SDS011;72538;48.146;11.740;2023-12-28T01:03:48;2.30;;;1.63;;
73682;SDS011;72538;48.146;11.740;2023-12-28T01:06:13;1.73;;;1.43;;
73682;SDS011;72538;48.146;11.740;2023-12-28T01:08:39;2.07;;;1.50;;
73682;SDS011;72538;48.146;11.740;2023-12-28T01:11:05;2.00;;;1.70;;
73682;SDS011;72538;48.146;11.740;2023-12-28T01:13:31;1.97;;;1.60;;
73682;SDS011;72538;48.146;11.740;2023-12-28T01:15:56;1.80;;;1.30;;
73682;SDS011;72538;48.146;11.740;2023-12-28T01:18:22;1.90;;;1.50;;
73682;SDS011;72538;48.146;11.740;2023-12-28T01:20:48;1.90;;;1.63;;
73682;SDS011;72538;48.146;11.740;2023-12-28T01:23:13;2.33;;;1.77;;
73682;SDS011;72538;48.146;11.740;2023-12-28T01:25:39;1.70;;;1.60;;
73682;SDS011;72538;48.146;11.740;2023-12-28T01:28:05;2.63;;;1.67;;
73682;SDS011;72538;48.146;11.740;2023-12-28T01:30:31;2.20;;;1.73;;
73682;SDS011;72538;48.146;11.740;2023-12-28T01:32:56;1.63;;;1.53;;
73682;SDS011;72538;48.146;11.740;2023-12-28T01:35:22;1.97;;;1.37;;
73682;SDS011;72538;48.146;11.740;2023-12-28T01:37:48;2.23;;;1.70;;
73682;SDS011;72538;48.146;11.740;2023-12-28T01:40:14;2.20;;;1.70;;
73682;SDS011;72538;48.146;11.740;2023-12-28T01:42:42;2.50;;;1.57;;
73682;SDS011;72538;48.146;11.740;2023-12-28T01:45:07;2.23;;;1.60;;
73682;SDS011;72538;48.146;11.740;2023-12-28T01:47:33;2.33;;;1.60;;
73682;SDS011;72538;48.146;11.740;2023-12-28T01:50:00;2.53;;;1.73;;
73682;SDS011;72538;48.146;11.740;2023-12-28T01:52:26;2.37;;;1.83;;
73682;SDS011;72538;48.146;11.740;2023-12-28T01:54:53;1.87;;;1.67;;
73682;SDS011;72538;48.146;11.740;2023-12-28T01:57:20;2.23;;;1.90;;
73682;SDS011;72538;48.146;11.740;2023-12-28T01:59:47;1.40;;;1.30;;
73682;SDS011;72538;48.146;11.740;2023-12-28T02:02:13;2.07;;;1.10;;
73682;SDS011;72538;48.146;11.740;2023-12-28T02:04:39;2.00;;;1.30;;
73682;SDS011;72538;48.146;11.740;2023-12-28T02:07:05;2.23;;;1.57;;
73682;SDS011;72538;48.146;11.740;2023-12-28T02:09:32;1.60;;;1.37;;
73682;SDS011;72538;48.146;11.740;2023-12-28T02:11:58;2.33;;;1.40;;
73682;SDS011;72538;48.146;11.740;2023-12-28T02:14:24;2.17;;;1.20;;
73682;SDS011;72538;48.146;11.740;2023-12-28T02:17:00;1.20;;;1.10;;
73682;SDS011;72538;48.146;11.740;2023-12-28T02:19:35;1.40;;;1.30;;
73682;SDS011;72538;48.146;11.740;2023-12-28T02:22:01;2.13;;;1.60;;
73682;SDS011;72538;48.146;11.740;2023-12-28T02:24:28;1.50;;;1.37;;
73682;SDS011;72538;48.146;11.740;2023-12-28T02:26:54;2.20;;;1.27;;
73682;SDS011;72538;48.146;11.740;2023-12-28T02:29:20;1.67;;;1.40;;
73682;SDS011;72538;48.146;11.740;2023-12-28T02:31:46;1.80;;;1.57;;
73682;SDS011;72538;48.146;11.740;2023-12-28T02:34:27;2.17;;;1.57;;
73682;SDS011;72538;48.146;11.740;2023-12-28T02:36:53;2.00;;;1.40;;
73682;SDS011;72538;48.146;11.740;2023-12-28T02:39:22;1.90;;;1.70;;
73682;SDS011;72538;48.146;11.740;2023-12-28T02:41:49;1.83;;;1.60;;
73682;SDS011;72538;48.146;11.740;2023-12-28T02:44:14;1.50;;;1.20;;
73682;SDS011;72538;48.146;11.740;2023-12-28T02:46:41;1.40;;;1.30;;
73682;SDS011;72538;48.146;11.740;2023-12-28T02:49:06;2.13;;;1.63;;
73682;SDS011;72538;48.146;11.740;2023-12-28T02:51:32;1.40;;;1.30;;
73682;SDS011;72538;48.146;11.740;2023-12-28T02:53:58;1.93;;;1.40;;
73682;SDS011;72538;48.146;11.740;2023-12-28T02:56:23;2.90;;;1.50;;
73682;SDS011;72538;48.146;11.740;2023-12-28T02:58:49;1.50;;;1.20;;
73682;SDS011;72538;48.146;11.740;2023-12-28T03:01:15;3.00;;;1.40;;
73682;SDS011;72538;48.146;11.740;2023-12-28T03:03:40;1.73;;;1.50;;
73682;SDS011;72538;48.146;11.740;2023-12-28T03:06:06;1.30;;;1.20;;
73682;SDS011;72538;48.146;11.740;2023-12-28T03:08:32;1.80;;;1.47;;
73682;SDS011;72538;48.146;11.740;2023-12-28T03:10:58;1.33;;;1.23;;
73682;SDS011;72538;48.146;11.740;2023-12-28T03:13:24;2.63;;;1.50;;
73682;SDS011;72538;48.146;11.740;2023-12-28T03:15:49;2.83;;;1.20;;
73682;SDS011;72538;48.146;11.740;2023-12-28T03:18:15;1.57;;;1.40;;
73682;SDS011;72538;48.146;11.740;2023-12-28T03:20:41;1.50;;;1.40;;
73682;SDS011;72538;48.146;11.740;2023-12-28T03:23:06;1.37;;;1.27;;
73682;SDS011;72538;48.146;11.740;2023-12-28T03:25:32;2.33;;;1.40;;
73682;SDS011;72538;48.146;11.740;2023-12-28T03:27:58;1.37;;;1.10;;
73682;SDS011;72538;48.146;11.740;2023-12-28T03:30:23;1.50;;;1.40;;
73682;SDS011;72538;48.146;11.740;2023-12-28T03:32:49;1.70;;;1.03;;
73682;SDS011;72538;48.146;11.740;2023-12-28T03:35:15;1.90;;;1.13;;
73682;SDS011;72538;48.146;11.740;2023-12-28T03:37:41;1.37;;;1.10;;
73682;SDS011;72538;48.146;11.740;2023-12-28T03:40:07;1.20;;;1.10;;
73682;SDS011;72538;48.146;11.740;2023-12-28T03:42:33;1.30;;;1.20;;
73682;SDS011;72538;48.146;11.740;2023-12-28T03:44:59;1.10;;;1.00;;
73682;SDS011;72538;48.146;11.740;2023-12-28T03:47:25;1.00;;;0.87;;
73682;SDS011;72538;48.146;11.740;2023-12-28T03:49:51;1.07;;;0.97;;
73682;SDS011;72538;48.146;11.740;2023-12-28T03:52:16;1.23;;;1.00;;
73682;SDS011;72538;48.146;11.740;2023-12-28T03:54:42;1.00;;;0.90;;
73682;SDS011;72538;48.146;11.740;2023-12-28T03:57:08;1.90;;;0.90;;
73682;SDS011;72538;48.146;11.740;2023-12-28T03:59:33;1.00;;;0.90;;
73682;SDS011;72538;48.146;11.740;2023-12-28T04:01:59;1.10;;;1.00;;
73682;SDS011;72538;48.146;11.740;2023-12-28T04:04:25;0.97;;;0.70;;
73682;SDS011;72538;48.146;11.740;2023-12-28T04:06:51;0.80;;;0.70;;
73682;SDS011;72538;48.146;11.740;2023-12-28T04:09:16;0.80;;;0.80;;
73682;SDS011;72538;48.146;11.740;2023-12-28T04:11:43;4.73;;;2.00;;
73682;SDS011;72538;48.146;11.740;2023-12-28T04:14:08;1.93;;;1.37;;
73682;SDS011;72538;48.146;11.740;2023-12-28T04:16:34;1.40;;;1.30;;
73682;SDS011;72538;48.146;11.740;2023-12-28T04:19:00;1.17;;;1.00;;
73682;SDS011;72538;48.146;11.740;2023-12-28T04:21:25;1.00;;;0.90;;
73682;SDS011;72538;48.146;11.740;2023-12-28T04:23:51;0.87;;;0.87;;
73682;SDS011;72538;48.146;11.740;2023-12-28T04:26:20;1.43;;;1.07;;
73682;SDS011;72538;48.146;11.740;2023-12-28T04:28:46;0.93;;;0.90;;
73682;SDS011;72538;48.146;11.740;2023-12-28T04:31:11;1.20;;;0.90;;
73682;SDS011;72538;48.146;11.740;2023-12-28T04:33:37;1.03;;;0.93;;
73682;SDS011;72538;48.146;11.740;2023-12-28T04:36:03;1.20;;;1.00;;
73682;SDS011;72538;48.146;11.740;2023-12-28T04:38:29;3.17;;;0.90;;
73682;SDS011;72538;48.146;11.740;2023-12-28T04:40:57;1.00;;;0.90;;
73682;SDS011;72538;48.146;11.740;2023-12-28T04:43:23;0.80;;;0.70;;
73682;SDS011;72538;48.146;11.740;2023-12-28T04:45:52;0.87;;;0.80;;
73682;SDS011;72538;48.146;11.740;2023-12-28T04:48:18;1.10;;;0.93;;
73682;SDS011;72538;48.146;11.740;2023-12-28T04:50:48;0.93;;;0.73;;
73682;SDS011;72538;48.146;11.740;2023-12-28T04:53:14;2.00;;;0.83;;
73682;SDS011;72538;48.146;11.740;2023-12-28T04:55:39;1.10;;;0.70;;
73682;SDS011;72538;48.146;11.740;2023-12-28T04:58:05;1.10;;;1.00;;
73682;SDS011;72538;48.146;11.740;2023-12-28T05:00:31;0.60;;;0.60;;
73682;SDS011;72538;48.146;11.740;2023-12-28T05:02:56;0.80;;;0.80;;
73682;SDS011;72538;48.146;11.740;2023-12-28T05:05:22;0.83;;;0.83;;
73682;SDS011;72538;48.146;11.740;2023-12-28T05:07:48;1.23;;;1.07;;
73682;SDS011;72538;48.146;11.740;2023-12-28T05:10:14;1.00;;;0.70;;
73682;SDS011;72538;48.146;11.740;2023-12-28T05:12:39;1.73;;;0.80;;
73682;SDS011;72538;48.146;11.740;2023-12-28T05:15:05;0.80;;;0.80;;
73682;SDS011;72538;48.146;11.740;2023-12-28T05:17:31;1.63;;;1.03;;
73682;SDS011;72538;48.146;11.740;2023-12-28T05:19:57;0.80;;;0.80;;
73682;SDS011;72538;48.146;11.740;2023-12-28T05:22:23;1.10;;;1.00;;
73682;SDS011;72538;48.146;11.740;2023-12-28T05:24:49;1.70;;;1.13;;
73682;SDS011;72538;48.146;11.740;2023-12-28T05:27:14;1.70;;;1.07;;
73682;SDS011;72538;48.146;11.740;2023-12-28T05:29:40;0.87;;;0.80;;
73682;SDS011;72538;48.146;11.740;2023-12-28T05:32:06;2.37;;;1.10;;
73682;SDS011;72538;48.146;11.740;2023-12-28T05:34:32;1.33;;;0.80;;
73682;SDS011;72538;48.146;11.740;2023-12-28T05:36:58;2.20;;;0.80;;
73682;SDS011;72538;48.146;11.740;2023-12-28T05:39:23;0.80;;;0.80;;
73682;SDS011;72538;48.146;11.740;2023-12-28T05:41:49;0.87;;;0.80;;
73682;SDS011;72538;48.146;11.740;2023-12-28T05:44:16;1.00;;;1.00;;
73682;SDS011;72538;48.146;11.740;2023-12-28T05:46:42;1.27;;;0.90;;
73682;SDS011;72538;48.146;11.740;2023-12-28T05:49:08;1.00;;;0.90;;
73682;SDS011;72538;48.146;11.740;2023-12-28T05:51:38;4.67;;;1.00;;
73682;SDS011;72538;48.146;11.740;2023-12-28T05:54:05;1.20;;;1.00;;
73682;SDS011;72538;48.146;11.740;2023-12-28T05:56:32;1.47;;;0.97;;
73682;SDS011;72538;48.146;11.740;2023-12-28T05:58:58;0.90;;;0.80;;
73682;SDS011;72538;48.146;11.740;2023-12-28T06:01:24;1.10;;;1.00;;
73682;SDS011;72538;48.146;11.740;2023-12-28T06:03:49;2.67;;;1.33;;
73682;SDS011;72538;48.146;11.740;2023-12-28T06:06:17;3.20;;;1.10;;
73682;SDS011;72538;48.146;11.740;2023-12-28T06:08:43;1.33;;;1.07;;
73682;SDS011;72538;48.146;11.740;2023-12-28T06:11:09;1.30;;;1.10;;
73682;SDS011;72538;48.146;11.740;2023-12-28T06:13:35;2.10;;;1.57;;
73682;SDS011;72538;48.146;11.740;2023-12-28T06:16:01;2.30;;;0.90;;
73682;SDS011;72538;48.146;11.740;2023-12-28T06:18:26;2.00;;;0.87;;
73682;SDS011;72538;48.146;11.740;2023-12-28T06:20:52;0.93;;;0.90;;
73682;SDS011;72538;48.146;11.740;2023-12-28T06:23:18;1.80;;;0.80;;
73682;SDS011;72538;48.146;11.740;2023-12-28T06:25:44;1.10;;;1.00;;
73682;SDS011;72538;48.146;11.740;2023-12-28T06:28:10;3.27;;;1.20;;
73682;SDS011;72538;48.146;11.740;2023-12-28T06:30:35;2.33;;;1.10;;
73682;SDS011;72538;48.146;11.740;2023-12-28T06:33:01;2.00;;;1.00;;
73682;SDS011;72538;48.146;11.740;2023-12-28T06:35:27;1.87;;;1.10;;
73682;SDS011;72538;48.146;11.740;2023-12-28T06:37:53;1.13;;;1.03;;
73682;SDS011;72538;48.146;11.740;2023-12-28T06:40:19;1.50;;;1.40;;
73682;SDS011;72538;48.146;11.740;2023-12-28T06:42:45;1.47;;;1.03;;
73682;SDS011;72538;48.146;11.740;2023-12-28T06:45:10;2.33;;;1.30;;
73682;SDS011;72538;48.146;11.740;2023-12-28T06:47:36;1.37;;;1.20;;
73682;SDS011;72538;48.146;11.740;2023-12-28T06:50:02;1.20;;;1.10;;
73682;SDS011;72538;48.146;11.740;2023-12-28T06:52:28;1.87;;;0.90;;
73682;SDS011;72538;48.146;11.740;2023-12-28T06:54:56;1.43;;;1.10;;
73682;SDS011;72538;48.146;11.740;2023-12-28T06:57:22;1.20;;;1.00;;
73682;SDS011;72538;48.146;11.740;2023-12-28T06:59:47;1.80;;;1.07;;
73682;SDS011;72538;48.146;11.740;2023-12-28T07:02:13;1.33;;;1.00;;
73682;SDS011;72538;48.146;11.740;2023-12-28T07:04:39;1.73;;;1.07;;
73682;SDS011;72538;48.146;11.740;2023-12-28T07:07:04;2.70;;;2.03;;
73682;SDS011;72538;48.146;11.740;2023-12-28T07:09:30;1.43;;;1.33;;
73682;SDS011;72538;48.146;11.740;2023-12-28T07:11:56;2.10;;;1.10;;
73682;SDS011;72538;48.146;11.740;2023-12-28T07:14:22;1.53;;;1.43;;
73682;SDS011;72538;48.146;11.740;2023-12-28T07:16:47;1.30;;;1.20;;
73682;SDS011;72538;48.146;11.740;2023-12-28T07:19:13;1.23;;;1.00;;
73682;SDS011;72538;48.146;11.740;2023-12-28T07:21:39;1.37;;;1.27;;
73682;SDS011;72538;48.146;11.740;2023-12-28T07:24:05;1.97;;;1.00;;
73682;SDS011;72538;48.146;11.740;2023-12-28T07:26:31;1.27;;;1.10;;
73682;SDS011;72538;48.146;11.740;2023-12-28T07:28:56;1.23;;;1.03;;
73682;SDS011;72538;48.146;11.740;2023-12-28T07:31:25;1.20;;;1.10;;
73682;SDS011;72538;48.146;11.740;2023-12-28T07:33:52;1.20;;;1.10;;
73682;SDS011;72538;48.146;11.740;2023-12-28T07:36:19;1.20;;;1.10;;
73682;SDS011;72538;48.146;11.740;2023-12-28T07:38:46;1.27;;;1.03;;
73682;SDS011;72538;48.146;11.740;2023-12-28T07:41:12;1.80;;;1.50;;
73682;SDS011;72538;48.146;11.740;2023-12-28T07:43:38;1.97;;;1.40;;
73682;SDS011;72538;48.146;11.740;2023-12-28T07:46:04;2.17;;;1.30;;
73682;SDS011;72538;48.146;11.740;2023-12-28T07:48:30;2.63;;;1.40;;
73682;SDS011;72538;48.146;11.740;2023-12-28T07:50:56;2.70;;;1.40;;
73682;SDS011;72538;48.146;11.740;2023-12-28T07:53:22;1.50;;;1.40;;
73682;SDS011;72538;48.146;11.740;2023-12-28T07:55:49;2.33;;;1.47;;
73682;SDS011;72538;48.146;11.740;2023-12-28T07:58:14;2.80;;;1.50;;
73682;SDS011;72538;48.146;11.740;2023-12-28T08:00:40;1.47;;;1.37;;
73682;SDS011;72538;48.146;11.740;2023-12-28T08:03:06;1.87;;;1.53;;
73682;SDS011;72538;48.146;11.740;2023-12-28T08:05:32;3.43;;;1.83;;
73682;SDS011;72538;48.146;11.740;2023-12-28T08:07:58;1.70;;;1.60;;
73682;SDS011;72538;48.146;11.740;2023-12-28T08:10:23;1.50;;;1.40;;
73682;SDS011;72538;48.146;11.740;2023-12-28T08:12:49;3.27;;;1.73;;
73682;SDS011;72538;48.146;11.740;2023-12-28T08:15:15;3.37;;;1.43;;
73682;SDS011;72538;48.146;11.740;2023-12-28T08:17:40;1.23;;;1.17;;
73682;SDS011;72538;48.146;11.740;2023-12-28T08:20:06;2.57;;;1.60;;
73682;SDS011;72538;48.146;11.740;2023-12-28T08:22:33;3.70;;;1.13;;
73682;SDS011;72538;48.146;11.740;2023-12-28T08:24:59;1.40;;;1.30;;
73682;SDS011;72538;48.146;11.740;2023-12-28T08:27:24;1.60;;;1.50;;
73682;SDS011;72538;48.146;11.740;2023-12-28T08:29:50;2.80;;;2.60;;
73682;SDS011;72538;48.146;11.740;2023-12-28T08:32:16;2.43;;;2.30;;
73682;SDS011;72538;48.146;11.740;2023-12-28T08:34:42;2.90;;;2.70;;
73682;SDS011;72538;48.146;11.740;2023-12-28T08:37:08;3.50;;;3.40;;
73682;SDS011;72538;48.146;11.740;2023-12-28T08:39:34;4.60;;;4.20;;
73682;SDS011;72538;48.146;11.740;2023-12-28T08:42:00;7.17;;;6.83;;
73682;SDS011;72538;48.146;11.740;2023-12-28T08:44:26;3.20;;;3.10;;
73682;SDS011;72538;48.146;11.740;2023-12-28T08:46:52;5.17;;;4.87;;
73682;SDS011;72538;48.146;11.740;2023-12-28T08:49:18;6.55;;;5.95;;
73682;SDS011;72538;48.146;11.740;2023-12-28T08:51:44;7.12;;;6.72;;
73682;SDS011;72538;48.146;11.740;2023-12-28T08:54:10;6.78;;;6.47;;
73682;SDS011;72538;48.146;11.740;2023-12-28T08:56:36;6.28;;;5.97;;
73682;SDS011;72538;48.146;11.740;2023-12-28T08:59:02;6.12;;;5.72;;
73682;SDS011;72538;48.146;11.740;2023-12-28T09:01:29;5.72;;;5.42;;
73682;SDS011;72538;48.146;11.740;2023-12-28T09:03:57;5.45;;;5.00;;
73682;SDS011;72538;48.146;11.740;2023-12-28T09:06:24;7.80;;;5.92;;
73682;SDS011;72538;48.146;11.740;2023-12-28T09:08:50;8.20;;;6.00;;
73682;SDS011;72538;48.146;11.740;2023-12-28T09:11:17;3.77;;;3.47;;
73682;SDS011;72538;48.146;11.740;2023-12-28T09:13:43;3.00;;;2.80;;
73682;SDS011;72538;48.146;11.740;2023-12-28T09:16:10;2.50;;;2.40;;
73682;SDS011;72538;48.146;11.740;2023-12-28T09:18:37;2.72;;;2.52;;
73682;SDS011;72538;48.146;11.740;2023-12-28T09:21:03;2.33;;;2.05;;
73682;SDS011;72538;48.146;11.740;2023-12-28T09:23:32;4.00;;;2.55;;
73682;SDS011;72538;48.146;11.740;2023-12-28T09:25:59;2.17;;;2.08;;
73682;SDS011;72538;48.146;11.740;2023-12-28T09:28:26;2.10;;;1.87;;
73682;SDS011;72538;48.146;11.740;2023-12-28T09:30:52;1.95;;;1.85;;
73682;SDS011;72538;48.146;11.740;2023-12-28T09:33:18;1.72;;;1.62;;
73682;SDS011;72538;48.146;11.740;2023-12-28T09:35:43;1.80;;;1.70;;
73682;SDS011;72538;48.146;11.740;2023-12-28T09:38:09;1.52;;;1.42;;
73682;SDS011;72538;48.146;11.740;2023-12-28T09:40:35;1.50;;;1.40;;
73682;SDS011;72538;48.146;11.740;2023-12-28T09:43:15;1.70;;;1.60;;
73682;SDS011;72538;48.146;11.740;2023-12-28T09:45:49;1.72;;;1.62;;
73682;SDS011;72538;48.146;11.740;2023-12-28T09:48:16;1.40;;;1.30;;
73682;SDS011;72538;48.146;11.740;2023-12-28T09:50:43;3.05;;;1.80;;
73682;SDS011;72538;48.146;11.740;2023-12-28T09:53:11;1.62;;;1.52;;
73682;SDS011;72538;48.146;11.740;2023-12-28T09:55:37;1.85;;;1.60;;
73682;SDS011;72538;48.146;11.740;2023-12-28T09:58:03;2.83;;;2.22;;
73682;SDS011;72538;48.146;11.740;2023-12-28T10:00:31;2.05;;;1.85;;
73682;SDS011;72538;48.146;11.740;2023-12-28T10:02:58;1.50;;;1.40;;
73682;SDS011;72538;48.146;11.740;2023-12-28T10:05:23;1.40;;;1.30;;
73682;SDS011;72538;48.146;11.740;2023-12-28T10:07:50;2.10;;;1.20;;
73682;SDS011;72538;48.146;11.740;2023-12-28T10:10:15;1.73;;;1.23;;
73682;SDS011;72538;48.146;11.740;2023-12-28T10:12:42;1.55;;;1.45;;
73682;SDS011;72538;48.146;11.740;2023-12-28T10:15:09;1.50;;;1.40;;
73682;SDS011;72538;48.146;11.740;2023-12-28T10:17:35;1.62;;;1.32;;
73682;SDS011;72538;48.146;11.740;2023-12-28T10:20:01;1.82;;;1.40;;
73682;SDS011;72538;48.146;11.740;2023-12-28T10:22:32;2.08;;;1.30;;
73682;SDS011;72538;48.146;11.740;2023-12-28T10:24:58;1.55;;;1.45;;
73682;SDS011;72538;48.146;11.740;2023-12-28T10:27:27;2.80;;;1.40;;
73682;SDS011;72538;48.146;11.740;2023-12-28T10:29:54;2.75;;;2.17;;
73682;SDS011;72538;48.146;11.740;2023-12-28T10:32:21;2.62;;;2.30;;
73682;SDS011;72538;48.146;11.740;2023-12-28T10:34:50;2.67;;;2.47;;
73682;SDS011;72538;48.146;11.740;2023-12-28T10:37:18;3.08;;;2.72;;
73682;SDS011;72538;48.146;11.740;2023-12-28T10:39:50;4.72;;;3.95;;
73682;SDS011;72538;48.146;11.740;2023-12-28T10:42:16;2.40;;;2.20;;
73682;SDS011;72538;48.146;11.740;2023-12-28T10:44:44;2.92;;;1.50;;
73682;SDS011;72538;48.146;11.740;2023-12-28T10:47:15;1.95;;;1.55;;
73682;SDS011;72538;48.146;11.740;2023-12-28T10:49:42;2.47;;;1.60;;
73682;SDS011;72538;48.146;11.740;2023-12-28T10:52:11;1.87;;;1.30;;
73682;SDS011;72538;48.146;11.740;2023-12-28T10:54:54;3.22;;;1.30;;
73682;SDS011;72538;48.146;11.740;2023-12-28T10:57:29;2.75;;;1.40;;
73682;SDS011;72538;48.146;11.740;2023-12-28T11:00:04;1.45;;;1.35;;
73682;SDS011;72538;48.146;11.740;2023-12-28T11:02:38;1.30;;;1.20;;
73682;SDS011;72538;48.146;11.740;2023-12-28T11:05:07;1.25;;;1.20;;
73682;SDS011;72538;48.146;11.740;2023-12-28T11:07:33;1.70;;;1.60;;
73682;SDS011;72538;48.146;11.740;2023-12-28T11:10:03;1.62;;;1.15;;
73682;SDS011;72538;48.146;11.740;2023-12-28T11:12:30;1.98;;;1.77;;
73682;SDS011;72538;48.146;11.740;2023-12-28T11:14:56;2.35;;;1.45;;
73682;SDS011;72538;48.146;11.740;2023-12-28T11:17:22;1.20;;;1.10;;
73682;SDS011;72538;48.146;11.740;2023-12-28T11:19:52;2.27;;;1.35;;
73682;SDS011;72538;48.146;11.740;2023-12-28T11:22:19;2.85;;;2.55;;
73682;SDS011;72538;48.146;11.740;2023-12-28T11:24:47;3.17;;;2.67;;
73682;SDS011;72538;48.146;11.740;2023-12-28T11:27:13;2.00;;;1.80;;
73682;SDS011;72538;48.146;11.740;2023-12-28T11:29:41;1.90;;;1.70;;
73682;SDS011;72538;48.146;11.740;2023-12-28T11:32:08;1.95;;;1.50;;
73682;SDS011;72538;48.146;11.740;2023-12-28T11:34:34;1.65;;;1.20;;
73682;SDS011;72538;48.146;11.740;2023-12-28T11:37:00;1.47;;;1.30;;
73682;SDS011;72538;48.146;11.740;2023-12-28T11:39:32;1.50;;;1.27;;
73682;SDS011;72538;48.146;11.740;2023-12-28T11:42:00;1.40;;;1.30;;
73682;SDS011;72538;48.146;11.740;2023-12-28T11:44:28;1.53;;;1.13;;
73682;SDS011;72538;48.146;11.740;2023-12-28T11:46:55;1.25;;;1.12;;
73682;SDS011;72538;48.146;11.740;2023-12-28T11:49:25;2.00;;;1.50;;
73682;SDS011;72538;48.146;11.740;2023-12-28T11:51:58;1.40;;;1.03;;
73682;SDS011;72538;48.146;11.740;2023-12-28T11:54:23;2.50;;;1.37;;
73682;SDS011;72538;48.146;11.740;2023-12-28T11:56:52;1.80;;;1.10;;
73682;SDS011;72538;48.146;11.740;2023-12-28T11:59:18;1.03;;;1.00;;
73682;SDS011;72538;48.146;11.740;2023-12-28T12:01:51;2.83;;;1.80;;
73682;SDS011;72538;48.146;11.740;2023-12-28T12:04:18;1.10;;;1.00;;
73682;SDS011;72538;48.146;11.740;2023-12-28T12:06:45;1.30;;;1.00;;
73682;SDS011;72538;48.146;11.740;2023-12-28T12:09:15;1.20;;;1.10;;
73682;SDS011;72538;48.146;11.740;2023-12-28T12:11:43;1.73;;;1.13;;
73682;SDS011;72538;48.146;11.740;2023-12-28T12:14:09;1.67;;;1.30;;
73682;SDS011;72538;48.146;11.740;2023-12-28T12:16:36;2.60;;;1.77;;
73682;SDS011;72538;48.146;11.740;2023-12-28T12:19:05;1.47;;;1.37;;
73682;SDS011;72538;48.146;11.740;2023-12-28T12:21:32;1.93;;;1.13;;
73682;SDS011;72538;48.146;11.740;2023-12-28T12:23:59;1.77;;;1.30;;
73682;SDS011;72538;48.146;11.740;2023-12-28T12:26:31;1.80;;;1.33;;
73682;SDS011;72538;48.146;11.740;2023-12-28T12:28:57;1.93;;;1.47;;
73682;SDS011;72538;48.146;11.740;2023-12-28T12:31:23;1.67;;;1.30;;
73682;SDS011;72538;48.146;11.740;2023-12-28T12:33:50;2.30;;;1.37;;
73682;SDS011;72538;48.146;11.740;2023-12-28T12:36:16;1.40;;;1.30;;
73682;SDS011;72538;48.146;11.740;2023-12-28T12:38:43;1.40;;;1.30;;
73682;SDS011;72538;48.146;11.740;2023-12-28T12:41:10;1.70;;;1.23;;
73682;SDS011;72538;48.146;11.740;2023-12-28T12:43:37;1.17;;;1.07;;
73682;SDS011;72538;48.146;11.740;2023-12-28T12:46:03;1.70;;;1.47;;
73682;SDS011;72538;48.146;11.740;2023-12-28T12:48:29;1.23;;;1.13;;
73682;SDS011;72538;48.146;11.740;2023-12-28T12:50:55;0.93;;;0.90;;
73682;SDS011;72538;48.146;11.740;2023-12-28T12:53:21;1.97;;;1.13;;
73682;SDS011;72538;48.146;11.740;2023-12-28T12:55:47;2.03;;;1.00;;
73682;SDS011;72538;48.146;11.740;2023-12-28T12:58:14;1.23;;;1.13;;
73682;SDS011;72538;48.146;11.740;2023-12-28T13:00:42;2.60;;;2.10;;
73682;SDS011;72538;48.146;11.740;2023-12-28T13:03:12;1.53;;;1.43;;
73682;SDS011;72538;48.146;11.740;2023-12-28T13:05:38;1.40;;;1.30;;
73682;SDS011;72538;48.146;11.740;2023-12-28T13:08:04;1.50;;;1.40;;
73682;SDS011;72538;48.146;11.740;2023-12-28T13:10:30;1.20;;;1.10;;
73682;SDS011;72538;48.146;11.740;2023-12-28T13:12:56;1.33;;;1.23;;
73682;SDS011;72538;48.146;11.740;2023-12-28T13:15:22;3.17;;;1.60;;
73682;SDS011;72538;48.146;11.740;2023-12-28T13:17:48;1.70;;;1.40;;
73682;SDS011;72538;48.146;11.740;2023-12-28T13:20:13;2.37;;;1.40;;
73682;SDS011;72538;48.146;11.740;2023-12-28T13:22:39;2.27;;;1.57;;
73682;SDS011;72538;48.146;11.740;2023-12-28T13:25:06;1.53;;;1.40;;
73682;SDS011;72538;48.146;11.740;2023-12-28T13:27:32;1.70;;;1.50;;
73682;SDS011;72538;48.146;11.740;2023-12-28T13:29:59;1.80;;;1.47;;
73682;SDS011;72538;48.146;11.740;2023-12-28T13:32:24;6.23;;;2.03;;
73682;SDS011;72538;48.146;11.740;2023-12-28T13:34:50;2.60;;;1.60;;
73682;SDS011;72538;48.146;11.740;2023-12-28T13:37:16;2.50;;;1.60;;
73682;SDS011;72538;48.146;11.740;2023-12-28T13:39:42;3.77;;;2.40;;
73682;SDS011;72538;48.146;11.740;2023-12-28T13:42:08;2.37;;;2.17;;
73682;SDS011;72538;48.146;11.740;2023-12-28T13:44:34;2.73;;;1.97;;
73682;SDS011;72538;48.146;11.740;2023-12-28T13:47:03;8.43;;;2.83;;
73682;SDS011;72538;48.146;11.740;2023-12-28T13:49:31;3.17;;;2.67;;
73682;SDS011;72538;48.146;11.740;2023-12-28T13:51:57;4.90;;;2.47;;
73682;SDS011;72538;48.146;11.740;2023-12-28T13:54:23;3.37;;;1.90;;
73682;SDS011;72538;48.146;11.740;2023-12-28T13:56:49;3.83;;;1.70;;
73682;SDS011;72538;48.146;11.740;2023-12-28T13:59:14;1.70;;;1.53;;
73682;SDS011;72538;48.146;11.740;2023-12-28T14:01:40;2.93;;;1.83;;
73682;SDS011;72538;48.146;11.740;2023-12-28T14:04:06;2.10;;;1.87;;
73682;SDS011;72538;48.146;11.740;2023-12-28T14:06:32;3.50;;;2.07;;
73682;SDS011;72538;48.146;11.740;2023-12-28T14:08:58;2.50;;;2.00;;
73682;SDS011;72538;48.146;11.740;2023-12-28T14:11:24;3.30;;;2.53;;
73682;SDS011;72538;48.146;11.740;2023-12-28T14:13:50;3.47;;;2.33;;
73682;SDS011;72538;48.146;11.740;2023-12-28T14:16:16;3.63;;;2.30;;
73682;SDS011;72538;48.146;11.740;2023-12-28T14:18:42;3.80;;;2.10;;
73682;SDS011;72538;48.146;11.740;2023-12-28T14:21:08;6.10;;;3.50;;
73682;SDS011;72538;48.146;11.740;2023-12-28T14:23:35;6.17;;;3.60;;
73682;SDS011;72538;48.146;11.740;2023-12-28T14:26:04;4.57;;;3.80;;
73682;SDS011;72538;48.146;11.740;2023-12-28T14:28:33;5.10;;;3.20;;